Lambert St Louis International Airport
KSTL : now visible

Airfield :











YOU CAN JOIN US ON...

 
LOGIN :

Register | Disclaimer

   EN    FR    IT 

 









Legend :    VFR   Marginal VFR   IFR   Intensive IFR   Very Intensive IFR
Visi :
Ceiling :
>= 8 km
>= 3000ft
5 to 8 km
1000 to 3000 ft
1500m to 5 km
500 to 1000 ft
800 to 1500m
200 to 500 ft
< 800m
< 200 ft
Symbols :   Thunderstorms  Fog  Heavy snow  Heavy precipitations  Wind > 20 kt






- Airport Elevation : 618 ft
- IATA code : STL


KSTL - Lambert St Louis International

CURRENT METAR :
  • 261651Z 34015KT 10SM BKN017 OVC028 01/M04 A3015 RMK AO2 SNE27 SLP219 P0000 T00061039

EXPIRED METARs :
  • 261625Z 33012G21KT 9SM -SN OVC016 00/M03 A3015 RMK AO2 P0000 T00001033
  • 261610Z 34014G19KT 7SM -SN BKN014 OVC018 M01/M03 A3014 RMK AO2 P0000 T10061033
  • 261551Z 33011G21KT 2SM -SN BR BKN011 OVC018 M01/M03 A3014 RMK AO2 SLP216 P0001 T10061028
  • 261534Z 34015G23KT 2SM -SN BR BKN011 OVC018 M01/M03 A3014 RMK AO2 P0001 T10061028
  • 261519Z 33013G24KT 1 1/2SM R30R/5500VP6000FT -SN BR SCT008 OVC015 M01/M03 A3013 RMK AO2 P0001 T10061028
  • 261451Z 33014KT 1SM R30R/4500VP6000FT -SN BR FEW008 BKN013 OVC019 M01/M03 A3012 RMK AO2 SLP210 P0001 60005 T10061028 53019
  • 261426Z 33011G20KT 1 1/4SM R30R/5500VP6000FT -SN BR BKN011 OVC017 M01/M03 A3012 RMK AO2 P0000 T10061028

TAF KSTL
Valid from the 26 at 15:00 until the 27 at 18:00 UTC


261507Z 2615/2718 33012G20KT 1SM -SN SCT007 OVC012
FM261600 33012G20KT 3SM -SN OVC012
FM261630 33013G20KT P6SM OVC012
FM261900 32014G21KT P6SM OVC020
FM262200 32012G18KT P6SM BKN035
FM270100 30008KT P6SM FEW250



MET'MAP, your aeronautical weather chart ! - Copyright ORBIFLY December 2007 - Disclaimer

ORBIFLY MET'MAP TEAM :

Programming & Development : Alexandra Zaïnal
Concept & original design : Baudouin d'Aumeries
Assistance for programming : Marc-Olivier Méhu
Technical & hardware support : Manuel Goepfert

Contact : metmap@orbifly.com




SOURCES & CREDITS :

   NOAA       Earth
Advisory